createdAt,value
2016-09-12T00:01:01.825Z,0
2016-09-12T00:01:46.921Z,0
2016-09-12T00:02:46.964Z,0
2016-09-12T00:03:46.980Z,0
2016-09-12T00:04:47.000Z,0
2016-09-12T00:05:47.352Z,0
2016-09-12T00:06:47.357Z,0
2016-09-12T00:07:47.712Z,0
2016-09-12T00:08:47.204Z,0
2016-09-12T00:09:47.132Z,0
2016-09-12T00:11:02.119Z,0
2016-09-12T00:11:47.495Z,0
2016-09-12T00:13:02.386Z,0
2016-09-12T00:14:02.156Z,0
2016-09-12T00:14:47.279Z,0
2016-09-12T00:15:47.612Z,0
2016-09-12T00:16:47.481Z,0
2016-09-12T00:17:47.984Z,0
2016-09-12T00:18:47.398Z,0
2016-09-12T00:19:47.404Z,0
2016-09-12T00:20:47.565Z,0
2016-09-12T00:21:47.598Z,0
2016-09-12T00:23:02.830Z,0
2016-09-12T00:23:48.233Z,0
2016-09-12T00:24:47.543Z,0
2016-09-12T00:25:47.559Z,0
2016-09-12T00:27:47.655Z,0
2016-09-12T00:29:02.997Z,0
2016-09-12T00:29:47.692Z,0
2016-09-12T00:30:48.026Z,0
2016-09-12T00:31:47.778Z,0
2016-09-12T00:33:02.986Z,0
2016-09-12T00:33:47.775Z,0
2016-09-12T00:34:47.805Z,0
2016-09-12T00:35:47.839Z,0
2016-09-12T00:36:47.859Z,0
2016-09-12T00:37:47.906Z,0
2016-09-12T00:38:47.907Z,0
2016-09-12T00:39:48.242Z,0
2016-09-12T00:40:48.090Z,0
2016-09-12T00:41:48.638Z,0
2016-09-12T00:42:48.061Z,0
2016-09-12T00:44:48.391Z,0
2016-09-12T00:45:48.389Z,0
2016-09-12T00:47:48.145Z,0
2016-09-12T00:48:48.201Z,0
2016-09-12T00:49:48.213Z,0
2016-09-12T00:50:48.254Z,0
2016-09-12T00:52:48.291Z,0
2016-09-12T00:53:48.515Z,0
2016-09-12T00:54:48.332Z,0
2016-09-12T00:55:48.420Z,0
2016-09-12T00:56:49.013Z,0
2016-09-12T00:57:48.426Z,0
2016-09-12T00:58:48.440Z,0
2016-09-12T01:00:03.593Z,0
2016-09-12T01:00:48.506Z,0
2016-09-12T01:02:48.864Z,0
2016-09-12T01:03:48.576Z,0
2016-09-12T01:04:48.623Z,0
2016-09-12T01:06:48.674Z,0
2016-09-12T01:07:48.987Z,0
2016-09-12T01:08:49.039Z,0
2016-09-12T01:09:48.795Z,0
2016-09-12T01:10:48.757Z,0
2016-09-12T01:11:49.089Z,0
2016-09-12T01:12:49.427Z,0
2016-09-12T01:13:49.146Z,0
2016-09-12T01:14:48.914Z,0
2016-09-12T01:16:03.833Z,0
2016-09-12T01:16:48.929Z,0
2016-09-12T01:17:48.959Z,0
2016-09-12T01:18:49.046Z,0
2016-09-12T01:19:49.035Z,0
2016-09-12T01:20:49.045Z,0
2016-09-12T01:21:49.120Z,0
2016-09-12T01:22:49.074Z,0
2016-09-12T01:23:49.107Z,0
2016-09-12T01:25:04.248Z,0
2016-09-12T01:25:49.210Z,0
2016-09-12T01:26:49.179Z,0
2016-09-12T01:27:49.527Z,0
2016-09-12T01:28:49.565Z,0
2016-09-12T01:29:49.697Z,0
2016-09-12T01:30:49.485Z,0
2016-09-12T01:32:04.942Z,0
2016-09-12T01:32:49.636Z,0
2016-09-12T01:33:49.507Z,0
2016-09-12T01:34:49.389Z,0
2016-09-12T01:36:04.371Z,0
2016-09-12T01:36:49.469Z,0
2016-09-12T01:38:49.897Z,0
2016-09-12T01:39:49.625Z,0
2016-09-12T01:40:49.677Z,0
2016-09-12T01:41:49.593Z,0
2016-09-12T01:42:49.633Z,0
2016-09-12T01:44:04.562Z,0
2016-09-12T01:44:49.667Z,0
2016-09-12T01:45:49.701Z,0
2016-09-12T01:46:50.388Z,0
2016-09-12T01:48:04.997Z,0
2016-09-12T01:48:50.077Z,0
2016-09-12T01:50:04.711Z,0
2016-09-12T01:50:49.826Z,0
2016-09-12T01:51:49.871Z,0
2016-09-12T01:52:50.758Z,0
2016-09-12T01:53:50.207Z,0
2016-09-12T01:54:50.570Z,0
2016-09-12T01:55:49.962Z,0
2016-09-12T01:57:50.008Z,0
2016-09-12T01:58:50.359Z,0
2016-09-12T01:59:50.097Z,0
2016-09-12T02:00:50.082Z,0
2016-09-12T02:01:50.120Z,0
2016-09-12T02:03:05.075Z,0
2016-09-12T02:04:05.423Z,0
2016-09-12T02:04:50.510Z,0
2016-09-12T02:05:50.322Z,0
2016-09-12T02:06:50.315Z,0
2016-09-12T02:07:50.286Z,0
2016-09-12T02:08:50.388Z,0
2016-09-12T02:09:50.622Z,0
2016-09-12T02:10:50.505Z,0
2016-09-12T02:11:50.379Z,0
2016-09-12T02:14:05.660Z,0
2016-09-12T02:15:05.451Z,0
2016-09-12T02:15:50.481Z,0
2016-09-12T02:17:05.480Z,0
2016-09-12T02:18:05.622Z,0
2016-09-12T02:19:05.841Z,0
2016-09-12T02:19:50.614Z,0
2016-09-12T02:20:50.959Z,0
2016-09-12T02:21:50.634Z,0
2016-09-12T02:22:50.697Z,0
2016-09-12T02:23:50.993Z,0
2016-09-12T02:24:50.715Z,0
2016-09-12T02:25:50.742Z,0
2016-09-12T02:26:50.814Z,0
2016-09-12T02:27:50.799Z,0
2016-09-12T02:28:50.958Z,0
2016-09-12T02:30:50.878Z,0
2016-09-12T02:32:51.998Z,0
2016-09-12T02:34:06.231Z,0
2016-09-12T02:34:50.988Z,0
2016-09-12T02:35:51.010Z,0
2016-09-12T02:36:51.077Z,0
2016-09-12T02:38:51.141Z,0
2016-09-12T02:39:51.498Z,0
2016-09-12T02:40:52.052Z,0
2016-09-12T02:41:51.154Z,0
2016-09-12T02:42:51.200Z,0
2016-09-12T02:43:51.835Z,0
2016-09-12T02:44:51.239Z,0
2016-09-12T02:45:51.573Z,0
2016-09-12T02:46:51.277Z,0
2016-09-12T02:47:51.307Z,0
2016-09-12T02:48:51.341Z,0
2016-09-12T02:49:51.367Z,0
2016-09-12T02:51:06.364Z,0
2016-09-12T02:51:51.424Z,0
2016-09-12T02:52:52.055Z,0
2016-09-12T02:53:51.476Z,0
2016-09-12T02:54:51.544Z,0
2016-09-12T02:55:51.527Z,0
2016-09-12T02:57:51.576Z,0
2016-09-12T02:58:51.608Z,0
2016-09-12T02:59:51.952Z,0
2016-09-12T03:00:51.704Z,0
2016-09-12T03:01:51.740Z,0
2016-09-12T03:02:52.021Z,0
2016-09-12T03:04:51.765Z,0
2016-09-12T03:05:51.776Z,0
2016-09-12T03:07:07.040Z,0
2016-09-12T03:07:52.121Z,0
2016-09-12T03:08:52.164Z,0
2016-09-12T03:09:51.947Z,0
2016-09-12T03:10:51.937Z,0
2016-09-12T03:13:06.888Z,0
2016-09-12T03:13:52.306Z,0
2016-09-12T03:14:52.015Z,0
2016-09-12T03:17:52.133Z,0
2016-09-12T03:19:52.197Z,0
2016-09-12T03:20:52.166Z,0
2016-09-12T03:21:52.209Z,0
2016-09-12T03:23:07.159Z,0
2016-09-12T03:23:52.246Z,0
2016-09-12T03:25:52.307Z,0
2016-09-12T03:26:52.644Z,0
2016-09-12T03:27:52.399Z,0
2016-09-12T03:28:52.785Z,0
2016-09-12T03:29:52.415Z,0
2016-09-12T03:30:52.464Z,0
2016-09-12T03:31:52.772Z,0
2016-09-12T03:32:52.492Z,0
2016-09-12T03:33:52.550Z,0
2016-09-12T03:35:52.561Z,0
2016-09-12T03:36:52.592Z,0
2016-09-12T03:38:07.555Z,0
2016-09-12T03:39:09.043Z,0
2016-09-12T03:39:53.098Z,0
2016-09-12T03:40:52.690Z,0
2016-09-12T03:41:52.713Z,0
2016-09-12T03:42:53.088Z,0
2016-09-12T03:43:52.770Z,0
2016-09-12T03:44:52.838Z,0
2016-09-12T03:45:52.809Z,0
2016-09-12T03:46:52.913Z,0
2016-09-12T03:47:52.898Z,0
2016-09-12T03:49:07.823Z,0
2016-09-12T03:49:52.930Z,0
2016-09-12T03:50:52.949Z,0
2016-09-12T03:51:52.971Z,0
2016-09-12T03:52:52.998Z,0
2016-09-12T03:54:07.952Z,0
2016-09-12T03:55:08.007Z,0
2016-09-12T03:55:53.086Z,0
2016-09-12T03:56:53.127Z,0
2016-09-12T03:57:53.134Z,0
2016-09-12T03:58:53.156Z,4
2016-09-12T03:59:53.185Z,0
2016-09-12T04:00:53.565Z,0
2016-09-12T04:01:53.576Z,4
2016-09-12T04:02:53.267Z,0
2016-09-12T04:03:53.300Z,4
2016-09-12T04:04:53.321Z,4
2016-09-12T04:05:53.356Z,8
2016-09-12T04:07:08.287Z,4
2016-09-12T04:07:53.734Z,4
2016-09-12T04:08:53.473Z,8
2016-09-12T04:09:53.764Z,12
2016-09-12T04:10:53.622Z,12
2016-09-12T04:11:53.847Z,16
2016-09-12T04:12:54.240Z,16
2016-09-12T04:13:53.548Z,20
2016-09-12T04:14:53.903Z,24
2016-09-12T04:15:53.591Z,28
2016-09-12T04:16:53.818Z,32
2016-09-12T04:17:54.263Z,36
2016-09-12T04:18:53.983Z,44
2016-09-12T04:19:53.704Z,48
2016-09-12T04:20:54.069Z,56
2016-09-12T04:21:53.761Z,68
2016-09-12T04:23:53.814Z,84
2016-09-12T04:24:54.025Z,96
2016-09-12T04:26:08.816Z,112
2016-09-12T04:26:53.911Z,120
2016-09-12T04:27:53.895Z,136
2016-09-12T04:29:54.254Z,168
2016-09-12T04:30:54.348Z,184
2016-09-12T04:31:54.011Z,204
2016-09-12T04:32:54.032Z,220
2016-09-12T04:33:54.066Z,244
2016-09-12T04:34:54.090Z,264
2016-09-12T04:35:54.142Z,284
2016-09-12T04:36:54.435Z,308
2016-09-12T04:37:54.236Z,332
2016-09-12T04:38:54.269Z,364
2016-09-12T04:39:54.526Z,392
2016-09-12T04:40:54.243Z,428
2016-09-12T04:42:09.557Z,472
2016-09-12T04:42:54.331Z,500
2016-09-12T04:43:54.312Z,540
2016-09-12T04:44:54.425Z,584
2016-09-12T04:45:54.369Z,628
2016-09-12T04:46:54.387Z,676
2016-09-12T04:47:55.046Z,732
2016-09-12T04:48:54.752Z,784
2016-09-12T04:49:54.785Z,844
2016-09-12T04:50:54.509Z,904
2016-09-12T04:51:54.531Z,960
2016-09-12T04:52:54.545Z,1028
2016-09-12T04:53:54.575Z,1100
2016-09-12T04:55:09.826Z,1204
2016-09-12T04:55:54.663Z,1264
2016-09-12T04:58:09.602Z,1456
2016-09-12T04:59:09.662Z,1548
2016-09-12T04:59:54.732Z,1612
2016-09-12T05:00:54.760Z,1708
2016-09-12T05:01:54.803Z,1812
2016-09-12T05:02:54.812Z,1924
2016-09-12T05:03:54.884Z,2032
2016-09-12T05:06:55.247Z,2384
2016-09-12T05:08:10.276Z,2536
2016-09-12T05:08:54.960Z,2628
2016-09-12T05:09:54.993Z,2756
2016-09-12T05:10:55.012Z,2888
2016-09-12T05:11:55.041Z,3024
2016-09-12T05:12:55.074Z,3164
2016-09-12T05:14:10.320Z,3352
2016-09-12T05:14:55.123Z,3460
2016-09-12T05:15:55.153Z,3616
2016-09-12T05:16:55.295Z,3776
2016-09-12T05:17:55.190Z,3932
2016-09-12T05:19:10.148Z,4124
2016-09-12T05:20:10.178Z,4332
2016-09-12T05:20:55.611Z,4500
2016-09-12T05:21:55.298Z,4608
2016-09-12T05:22:55.634Z,4824
2016-09-12T05:23:55.677Z,5036
2016-09-12T05:24:55.464Z,5136
2016-09-12T05:25:56.156Z,5320
2016-09-12T05:26:56.118Z,5448
2016-09-12T05:29:10.872Z,5756
2016-09-12T05:29:55.504Z,5888
2016-09-12T05:30:55.557Z,6036
2016-09-12T05:31:55.564Z,6184
2016-09-12T05:32:55.878Z,6336
2016-09-12T05:33:55.611Z,6476
2016-09-12T05:34:55.946Z,6620
2016-09-12T05:35:56.018Z,6760
2016-09-12T05:36:55.699Z,6892
2016-09-12T05:37:55.734Z,7008
2016-09-12T05:38:56.207Z,7096
2016-09-12T05:39:55.823Z,7200
2016-09-12T05:42:56.207Z,8536
2016-09-12T05:43:56.182Z,8176
2016-09-12T05:44:55.939Z,8040
2016-09-12T05:45:57.444Z,8224
2016-09-12T05:46:55.988Z,8420
2016-09-12T05:47:55.989Z,8608
2016-09-12T05:48:56.044Z,8708
2016-09-12T05:50:10.959Z,8992
2016-09-12T05:50:56.070Z,9332
2016-09-12T05:51:56.112Z,9616
2016-09-12T05:52:56.120Z,11332
2016-09-12T05:53:56.170Z,13952
2016-09-12T05:55:11.095Z,18240
2016-09-12T05:56:56.227Z,21120
2016-09-12T05:58:56.268Z,22624
2016-09-12T05:59:56.328Z,22656
2016-09-12T06:01:11.268Z,20992
2016-09-12T06:02:11.308Z,21824
2016-09-12T06:02:56.390Z,22368
2016-09-12T06:03:56.430Z,22624
2016-09-12T06:04:56.441Z,23328
2016-09-12T06:05:56.789Z,23616
2016-09-12T06:06:56.521Z,23584
2016-09-12T06:07:56.558Z,22144
2016-09-12T06:08:56.862Z,23392
2016-09-12T06:09:58.041Z,24256
2016-09-12T06:10:56.630Z,24864
2016-09-12T06:11:57.114Z,25856
2016-09-12T06:12:56.757Z,25824
2016-09-12T06:13:58.372Z,26208
2016-09-12T06:14:56.813Z,27424
2016-09-12T06:15:56.771Z,28864
2016-09-12T06:17:11.785Z,29696
2016-09-12T06:17:56.836Z,31968
2016-09-12T06:18:56.865Z,32608
2016-09-12T06:19:57.040Z,32160
2016-09-12T06:21:03.352Z,33440
2016-09-12T06:23:16.012Z,34176
2016-09-12T06:24:32.393Z,36192
2016-09-12T06:24:41.488Z,36608
2016-09-12T06:25:41.850Z,37120
2016-09-12T06:27:56.486Z,37888
2016-09-12T06:28:56.534Z,38048
2016-09-12T06:29:56.547Z,39296
2016-09-12T06:30:56.583Z,39200
2016-09-12T06:31:41.713Z,39520
2016-09-12T06:32:41.725Z,40672
2016-09-12T06:33:42.073Z,40960
2016-09-12T06:35:41.829Z,41120
2016-09-12T06:36:41.859Z,39680
2016-09-12T06:37:41.902Z,39456
2016-09-12T06:38:41.912Z,40864
2016-09-12T06:39:41.948Z,41024
2016-09-12T06:40:54.342Z,40672
2016-09-12T06:42:13.004Z,42272
2016-09-12T07:01:30.699Z,47456
2016-09-12T07:03:26.899Z,50208
2016-09-12T07:10:39.793Z,49280
2016-09-12T07:11:48.591Z,47904
2016-09-12T07:30:58.537Z,48000
2016-09-12T07:30:59.433Z,46624
2016-09-12T12:46:06.783Z,5812
2016-09-12T12:50:21.551Z,5884
2016-09-12T12:51:21.627Z,5896
2016-09-12T13:01:36.361Z,5928
2016-09-12T13:11:40.475Z,5980
2016-09-12T13:14:40.543Z,5960
2016-09-12T13:18:40.757Z,6008
2016-09-12T13:21:55.718Z,5936
2016-09-12T13:24:40.949Z,5868
2016-09-12T13:25:40.979Z,5788
2016-09-12T13:26:41.014Z,5800
2016-09-12T13:27:41.041Z,5696
2016-09-12T13:28:41.081Z,5704
2016-09-12T13:29:41.126Z,5792
2016-09-12T13:30:56.069Z,5920
2016-09-12T13:32:41.223Z,5924
2016-09-12T13:33:41.243Z,5900
2016-09-12T13:34:41.276Z,5912
2016-09-12T13:35:41.306Z,5888
2016-09-12T13:36:41.342Z,5780
2016-09-12T13:37:41.371Z,5716
2016-09-12T13:38:41.403Z,5732
2016-09-12T13:39:41.444Z,5640
2016-09-12T13:40:41.472Z,5568
2016-09-12T13:41:41.507Z,5664
2016-09-12T13:42:41.537Z,5684
2016-09-12T13:43:56.497Z,5684
2016-09-12T13:44:41.602Z,5768
2016-09-12T13:45:41.635Z,5684
2016-09-12T13:46:41.660Z,5596
2016-09-12T13:47:41.700Z,5516
2016-09-12T13:48:41.733Z,5524
2016-09-12T13:49:41.781Z,5552
2016-09-12T13:50:41.802Z,5564
2016-09-12T13:51:41.831Z,5612
2016-09-12T13:52:41.862Z,5632
2016-09-12T13:53:41.895Z,5688
2016-09-12T13:54:41.929Z,5676
2016-09-12T13:55:41.957Z,5640
2016-09-12T13:56:42.003Z,5584
2016-09-12T13:57:42.028Z,5512
2016-09-12T13:58:42.111Z,5540
2016-09-12T13:59:42.093Z,5520
2016-09-12T14:00:57.052Z,5436
2016-09-12T14:01:42.175Z,5436
2016-09-12T14:02:42.200Z,5468
2016-09-12T14:03:57.148Z,5436
2016-09-12T14:04:42.251Z,5420
2016-09-12T14:05:42.292Z,5388
2016-09-12T14:06:42.320Z,5404
2016-09-12T14:07:42.357Z,5328
2016-09-12T14:09:42.425Z,5220
2016-09-12T14:10:42.447Z,5192
2016-09-12T14:11:42.478Z,5196
2016-09-12T14:12:42.523Z,5200
2016-09-12T14:13:57.477Z,5168
2016-09-12T14:14:42.579Z,5164
2016-09-12T14:15:42.709Z,5188
2016-09-12T14:16:57.572Z,5116
2016-09-12T14:17:42.731Z,5096
2016-09-12T14:18:42.716Z,5056
2016-09-12T14:19:57.666Z,4988
2016-09-12T14:20:42.779Z,4988
2016-09-12T14:21:43.110Z,4928
2016-09-12T14:22:42.844Z,4956
2016-09-12T14:23:42.880Z,4972
2016-09-12T14:24:42.906Z,4936
2016-09-12T14:25:42.947Z,4912
2016-09-12T14:26:42.976Z,4896
2016-09-12T14:27:43.012Z,4936
2016-09-12T14:29:43.072Z,4752
2016-09-12T14:30:43.103Z,4956
2016-09-12T14:31:43.148Z,4968
2016-09-12T14:32:43.186Z,4956
2016-09-12T14:33:43.197Z,4908
2016-09-12T14:34:43.239Z,4928
2016-09-12T14:35:58.195Z,4884
2016-09-12T14:36:58.224Z,4908
2016-09-12T14:37:43.325Z,4892
2016-09-12T14:39:43.394Z,4860
2016-09-12T14:40:43.740Z,4824
2016-09-12T14:41:43.458Z,4816
2016-09-12T14:42:43.496Z,4812
2016-09-12T14:43:43.528Z,4768
2016-09-12T14:44:43.550Z,4712
2016-09-12T14:45:43.605Z,4692
2016-09-12T14:46:43.623Z,4692
2016-09-12T14:47:43.660Z,4664
2016-09-12T14:48:43.688Z,4632
2016-09-12T14:49:58.646Z,4620
2016-09-12T14:50:43.764Z,4620
2016-09-12T14:51:58.713Z,4616
2016-09-12T14:52:43.827Z,4608
2016-09-12T14:53:43.858Z,4596
2016-09-12T14:54:43.893Z,4584
2016-09-12T14:55:43.918Z,4540
2016-09-12T14:56:43.951Z,4552
2016-09-12T14:57:43.985Z,4568
2016-09-12T14:58:44.312Z,4520
2016-09-12T14:59:44.046Z,4520
2016-09-12T15:00:44.076Z,4484
2016-09-12T15:01:44.114Z,4456
2016-09-12T15:02:59.074Z,4560
2016-09-12T15:03:44.182Z,4544
2016-09-12T15:04:59.139Z,4524
2016-09-12T15:05:59.168Z,4532
2016-09-12T15:06:59.198Z,4512
2016-09-12T15:07:44.613Z,4492
2016-09-12T15:08:44.340Z,4460
2016-09-12T15:09:44.378Z,4416
2016-09-12T15:10:44.717Z,4404
2016-09-12T15:11:44.432Z,4360
2016-09-12T15:12:44.468Z,4336
2016-09-12T15:13:44.500Z,4308
2016-09-12T15:14:44.543Z,4288
2016-09-12T15:15:44.558Z,4272
2016-09-12T15:16:44.596Z,4248
2016-09-12T15:17:59.557Z,4204
2016-09-12T15:18:44.660Z,4156
2016-09-12T15:19:44.710Z,4148
2016-09-12T15:20:59.651Z,4100
2016-09-12T15:22:44.791Z,4056
2016-09-12T15:23:59.751Z,4000
2016-09-12T15:24:44.857Z,3928
2016-09-12T15:25:44.886Z,3944
2016-09-12T15:26:44.923Z,3908
2016-09-12T15:27:44.959Z,3932
2016-09-12T15:28:44.983Z,3964
2016-09-12T15:29:45.018Z,3968
2016-09-12T15:30:45.049Z,3964
2016-09-12T15:31:45.085Z,3948
2016-09-12T15:32:45.115Z,3932
2016-09-12T15:33:45.199Z,3900
2016-09-12T15:34:45.177Z,3864
2016-09-12T15:35:45.210Z,3832
2016-09-12T15:36:45.249Z,3800
2016-09-12T15:37:45.268Z,3784
2016-09-12T15:39:00.230Z,3752
2016-09-12T15:40:45.377Z,3692
2016-09-12T15:41:45.405Z,3656
2016-09-12T15:43:00.356Z,3632
2016-09-12T15:43:45.464Z,3624
2016-09-12T15:44:45.548Z,3592
2016-09-12T15:46:45.564Z,3528
2016-09-12T15:47:45.602Z,3496
2016-09-12T15:48:45.629Z,3464
2016-09-12T15:49:45.656Z,3440
2016-09-12T15:50:45.690Z,3424
2016-09-12T15:52:00.700Z,3392
2016-09-12T15:52:45.761Z,3368
2016-09-12T15:53:45.800Z,3352
2016-09-12T15:55:00.748Z,3320
2016-09-12T15:55:45.857Z,3300
2016-09-12T15:56:45.885Z,3284
2016-09-12T15:57:45.925Z,3240
2016-09-12T15:59:00.885Z,3204
2016-09-12T15:59:45.981Z,3196
2016-09-12T16:00:46.016Z,3164
2016-09-12T16:01:46.045Z,3120
2016-09-12T16:02:46.081Z,3076
2016-09-12T16:03:46.114Z,3048
2016-09-12T16:04:46.143Z,3004
2016-09-12T16:05:46.171Z,2956
2016-09-12T16:07:01.130Z,2888
2016-09-12T16:08:01.214Z,2848
2016-09-12T16:09:46.296Z,2772
2016-09-12T16:11:46.367Z,2700
2016-09-12T16:12:46.394Z,2668
2016-09-12T16:13:46.433Z,2628
2016-09-12T16:14:46.456Z,2604
2016-09-12T16:16:46.529Z,2516
2016-09-12T16:17:46.563Z,2480
2016-09-12T16:19:46.624Z,2416
2016-09-12T16:20:46.658Z,2376
2016-09-12T16:21:46.684Z,2328
2016-09-12T16:22:46.715Z,2292
2016-09-12T16:24:46.786Z,2196
2016-09-12T16:25:46.813Z,2156
2016-09-12T16:27:01.764Z,2104
2016-09-12T16:27:46.880Z,2072
2016-09-12T16:28:46.905Z,2020
2016-09-12T16:29:46.940Z,1968
2016-09-12T16:31:46.999Z,1872
2016-09-12T16:32:47.047Z,1824
2016-09-12T16:34:47.100Z,1736
2016-09-12T16:35:47.139Z,1692
2016-09-12T16:36:47.161Z,1656
2016-09-12T16:37:47.199Z,1616
2016-09-12T16:38:47.221Z,1572
2016-09-12T16:39:47.260Z,1540
2016-09-12T16:40:47.292Z,1500
2016-09-12T16:42:02.245Z,1456
2016-09-12T16:42:47.354Z,1428
2016-09-12T16:43:47.386Z,1392
2016-09-12T16:44:47.417Z,1360
2016-09-12T16:45:47.455Z,1328
2016-09-12T16:46:47.479Z,1292
2016-09-12T16:47:47.508Z,1260
2016-09-12T16:48:47.531Z,1224
2016-09-12T16:50:02.504Z,1184
2016-09-12T16:50:47.606Z,1160
2016-09-12T16:51:47.635Z,1128
2016-09-12T16:52:47.664Z,1096
2016-09-12T16:54:02.623Z,1052
2016-09-12T16:55:02.656Z,1020
2016-09-12T16:55:47.765Z,1000
2016-09-12T16:56:47.796Z,964
2016-09-12T16:58:47.856Z,904
2016-09-12T16:59:47.893Z,872
2016-09-12T17:01:47.960Z,812
2016-09-12T17:02:47.979Z,784
2016-09-12T17:03:48.008Z,756
2016-09-12T17:04:48.048Z,724
2016-09-12T17:05:48.071Z,696
2016-09-12T17:06:48.105Z,664
2016-09-12T17:07:48.137Z,636
2016-09-12T17:08:48.165Z,608
2016-09-12T17:09:48.216Z,580
2016-09-12T17:11:03.157Z,548
2016-09-12T17:11:48.265Z,524
2016-09-12T17:13:03.216Z,496
2016-09-12T17:14:03.252Z,468
2016-09-12T17:15:48.383Z,424
2016-09-12T17:16:48.420Z,396
2016-09-12T17:17:48.449Z,372
2016-09-12T17:18:48.472Z,348
2016-09-12T17:19:48.513Z,328
2016-09-12T17:20:48.535Z,304
2016-09-12T17:21:48.571Z,284
2016-09-12T17:22:48.609Z,260
2016-09-12T17:23:48.631Z,244
2016-09-12T17:24:48.961Z,220
2016-09-12T17:25:48.685Z,204
2016-09-12T17:26:48.724Z,184
2016-09-12T17:28:03.678Z,164
2016-09-12T17:28:48.792Z,152
2016-09-12T17:30:03.740Z,136
2016-09-12T17:31:03.775Z,120
2016-09-12T17:31:48.883Z,112
2016-09-12T17:32:48.914Z,96
2016-09-12T17:34:48.976Z,76
2016-09-12T17:35:48.998Z,68
2016-09-12T17:36:49.036Z,56
2016-09-12T17:37:49.055Z,48
2016-09-12T17:38:49.099Z,44
2016-09-12T17:39:49.127Z,36
2016-09-12T17:42:04.114Z,28
2016-09-12T17:42:49.217Z,24
2016-09-12T17:43:49.246Z,20
2016-09-12T17:44:49.270Z,16
2016-09-12T17:46:04.231Z,12
2016-09-12T17:46:49.642Z,12
2016-09-12T17:47:49.374Z,12
2016-09-12T17:48:49.405Z,8
2016-09-12T17:49:49.453Z,8
2016-09-12T17:50:50.521Z,8
2016-09-12T17:51:49.502Z,8
2016-09-12T17:52:49.524Z,4
2016-09-12T17:53:49.864Z,4
2016-09-12T17:55:04.513Z,0
2016-09-12T17:57:04.571Z,4
2016-09-12T17:58:04.602Z,0
2016-09-12T17:58:49.702Z,0
2016-09-12T17:59:49.734Z,0
2016-09-12T18:00:49.773Z,0
2016-09-12T18:02:04.717Z,0
2016-09-12T18:02:49.821Z,0
2016-09-12T18:03:49.855Z,0
2016-09-12T18:04:49.900Z,0
2016-09-12T18:05:49.917Z,0
2016-09-12T18:07:49.999Z,0
2016-09-12T18:08:50.049Z,0
2016-09-12T18:09:50.033Z,0
2016-09-12T18:10:50.063Z,0
2016-09-12T18:11:50.103Z,0
2016-09-12T18:12:50.120Z,0
2016-09-12T18:13:50.155Z,0
2016-09-12T18:14:50.191Z,0
2016-09-12T18:15:50.226Z,0
2016-09-12T18:17:05.175Z,0
2016-09-12T18:17:50.384Z,0
2016-09-12T18:19:50.340Z,0
2016-09-12T18:20:50.375Z,0
2016-09-12T18:21:50.405Z,0
2016-09-12T18:22:50.430Z,0
2016-09-12T18:23:50.452Z,0
2016-09-12T18:25:50.521Z,0
2016-09-12T18:26:50.547Z,0
2016-09-12T18:27:50.579Z,0
2016-09-12T18:28:50.607Z,0
2016-09-12T18:29:50.635Z,0
2016-09-12T18:30:50.672Z,0
2016-09-12T18:31:50.700Z,0
2016-09-12T18:32:50.731Z,0
2016-09-12T18:33:51.056Z,0
2016-09-12T18:35:05.710Z,0
2016-09-12T18:35:50.819Z,0
2016-09-12T18:36:50.851Z,0
2016-09-12T18:37:50.880Z,0
2016-09-12T18:38:50.912Z,0
2016-09-12T18:39:50.943Z,0
2016-09-12T18:40:50.968Z,0
2016-09-12T18:41:51.024Z,0
2016-09-12T18:42:51.037Z,0
2016-09-12T18:43:51.077Z,0
2016-09-12T18:44:51.089Z,0
2016-09-12T18:45:51.117Z,0
2016-09-12T18:47:06.377Z,0
2016-09-12T18:47:51.182Z,0
2016-09-12T18:49:06.131Z,0
2016-09-12T18:49:51.240Z,0
2016-09-12T18:51:51.296Z,0
2016-09-12T18:52:51.385Z,0
2016-09-12T18:53:51.354Z,0
2016-09-12T18:54:51.385Z,0
2016-09-12T18:55:51.410Z,0
2016-09-12T18:56:51.444Z,0
2016-09-12T18:57:51.470Z,0
2016-09-12T18:58:51.507Z,0
2016-09-12T18:59:51.540Z,0
2016-09-12T19:00:51.565Z,0
2016-09-12T19:02:51.620Z,0
2016-09-12T19:03:51.663Z,0
2016-09-12T19:05:06.613Z,0
2016-09-12T19:05:51.715Z,0
2016-09-12T19:07:06.662Z,0
2016-09-12T19:07:51.774Z,0
2016-09-12T19:09:06.734Z,0
2016-09-12T19:09:51.827Z,0
2016-09-12T19:12:51.922Z,0
2016-09-12T19:14:51.979Z,0
2016-09-12T19:15:51.997Z,0
2016-09-12T19:16:52.039Z,0
2016-09-12T19:17:52.065Z,0
2016-09-12T19:19:07.021Z,0
2016-09-12T19:19:52.124Z,0
2016-09-12T19:21:07.084Z,0
2016-09-12T19:21:52.185Z,0
2016-09-12T19:23:07.167Z,0
2016-09-12T19:23:52.241Z,0
2016-09-12T19:24:52.278Z,0
2016-09-12T19:25:52.308Z,0
2016-09-12T19:26:52.334Z,0
2016-09-12T19:27:52.357Z,0
2016-09-12T19:28:52.386Z,0
2016-09-12T19:29:52.422Z,0
2016-09-12T19:30:52.453Z,0
2016-09-12T19:31:52.487Z,0
2016-09-12T19:32:52.503Z,0
2016-09-12T19:34:07.463Z,0
2016-09-12T19:34:52.565Z,0
2016-09-12T19:35:52.593Z,0
2016-09-12T19:37:07.547Z,0
2016-09-12T19:37:52.652Z,0
2016-09-12T19:38:52.681Z,0
2016-09-12T19:39:52.709Z,0
2016-09-12T19:40:52.742Z,0
2016-09-12T19:41:52.767Z,0
2016-09-12T19:43:07.731Z,0
2016-09-12T19:43:52.830Z,0
2016-09-12T19:44:52.860Z,0
2016-09-12T19:45:52.877Z,0
2016-09-12T19:46:52.934Z,0
2016-09-12T19:47:52.965Z,0
2016-09-12T19:48:53.287Z,0
2016-09-12T19:49:53.003Z,0
2016-09-12T19:51:07.955Z,0
2016-09-12T19:52:07.983Z,0
2016-09-12T19:52:53.147Z,0
2016-09-12T19:53:53.124Z,0
2016-09-12T19:55:53.171Z,0
2016-09-12T19:56:53.209Z,0
2016-09-12T19:57:53.236Z,0
2016-09-12T19:58:53.265Z,0
2016-09-12T19:59:53.289Z,0
2016-09-12T20:00:53.324Z,0
2016-09-12T20:02:53.390Z,0
2016-09-12T20:03:53.410Z,0
2016-09-12T20:05:53.472Z,0
2016-09-12T20:06:53.497Z,0
2016-09-12T20:07:53.519Z,0
2016-09-12T20:08:53.567Z,0
2016-09-12T20:09:53.582Z,0
2016-09-12T20:10:53.616Z,0
2016-09-12T20:11:53.648Z,0
2016-09-12T20:12:53.675Z,0
2016-09-12T20:13:53.694Z,0
2016-09-12T20:14:53.726Z,0
2016-09-12T20:15:53.753Z,0
2016-09-12T20:16:53.781Z,0
2016-09-12T20:17:53.814Z,0
2016-09-12T20:18:53.840Z,0
2016-09-12T20:20:08.848Z,0
2016-09-12T20:20:53.897Z,0
2016-09-12T20:22:53.954Z,0
2016-09-12T20:24:54.019Z,0
2016-09-12T20:25:54.045Z,0
2016-09-12T20:26:54.072Z,0
2016-09-12T20:27:54.104Z,0
2016-09-12T20:28:54.140Z,0
2016-09-12T20:29:54.161Z,0
2016-09-12T20:30:54.191Z,0
2016-09-12T20:31:54.218Z,0
2016-09-12T20:32:54.245Z,0
2016-09-12T20:33:54.330Z,0
2016-09-12T20:35:09.229Z,0
2016-09-12T20:35:54.324Z,0
2016-09-12T20:36:54.365Z,0
2016-09-12T20:38:09.311Z,0
2016-09-12T20:38:54.416Z,0
2016-09-12T20:40:09.369Z,0
2016-09-12T20:41:09.395Z,0
2016-09-12T20:41:54.500Z,0
2016-09-12T20:42:54.536Z,0
2016-09-12T20:43:54.569Z,0
2016-09-12T20:46:54.642Z,0
2016-09-12T20:48:09.605Z,0
2016-09-12T20:48:54.705Z,0
2016-09-12T20:49:54.735Z,0
2016-09-12T20:50:54.763Z,0
2016-09-12T20:51:54.786Z,0
2016-09-12T20:52:54.824Z,0
2016-09-12T20:53:54.847Z,0
2016-09-12T20:55:09.800Z,0
2016-09-12T20:56:09.824Z,0
2016-09-12T20:56:54.927Z,0
2016-09-12T20:58:54.987Z,0
2016-09-12T20:59:55.013Z,0
2016-09-12T21:00:55.044Z,0
2016-09-12T21:02:55.101Z,0
2016-09-12T21:03:55.121Z,0
2016-09-12T21:04:55.158Z,0
2016-09-12T21:06:55.213Z,0
2016-09-12T21:07:55.237Z,0
2016-09-12T21:08:55.270Z,0
2016-09-12T21:09:55.307Z,0
2016-09-12T21:10:55.329Z,0
2016-09-12T21:12:10.276Z,0
2016-09-12T21:12:55.379Z,0
2016-09-12T21:14:55.462Z,0
2016-09-12T21:15:55.465Z,0
2016-09-12T21:16:55.802Z,0
2016-09-12T21:17:55.524Z,0
2016-09-12T21:18:55.553Z,0
2016-09-12T21:19:55.651Z,0
2016-09-12T21:20:55.666Z,0
2016-09-12T21:21:55.638Z,0
2016-09-12T21:22:55.967Z,0
2016-09-12T21:23:55.692Z,0
2016-09-12T21:24:55.744Z,0
2016-09-12T21:25:55.748Z,0
2016-09-12T21:27:10.703Z,0
2016-09-12T21:28:10.727Z,0
2016-09-12T21:28:55.837Z,0
2016-09-12T21:29:55.858Z,0
2016-09-12T21:30:56.186Z,0
2016-09-12T21:31:55.920Z,0
2016-09-12T21:32:55.954Z,0
2016-09-12T21:33:55.993Z,0
2016-09-12T21:34:56.002Z,0
2016-09-12T21:37:56.092Z,0
2016-09-12T21:39:11.044Z,0
2016-09-12T21:40:56.173Z,0
2016-09-12T21:42:11.122Z,0
2016-09-12T21:42:56.230Z,0
2016-09-12T21:44:11.175Z,0
2016-09-12T21:44:56.284Z,0
2016-09-12T21:45:56.313Z,0
2016-09-12T21:46:56.339Z,0
2016-09-12T21:49:56.429Z,0
2016-09-12T21:50:56.443Z,0